Time;durP1;ratioP1;P1;durP2;ratioP2;P2;SDS_P1;SDS_P2;PMS_P1;PMS_P2;Temp;Humidity;BMP_temperature;BMP_pressure;BME280_temperature;BME280_humidity;BME280_pressure;Samples;Min_cycle;Max_cycle;Signal;HPM_P1;HPM_P2
2023/06/02 00:01:08;;;;;;;;;9.00;9.00;;;;;-147.17;100.00;2459.22;5089384;27;51492;-53
2023/06/02 00:03:36;;;;;;;;;12.33;11.67;;;;;-147.17;100.00;1463.72;5085022;27;51919;-52
2023/06/02 00:06:05;;;;;;;;;11.00;9.67;;;;;-147.17;100.00;1214.91;5081414;27;51163;-53
2023/06/02 00:08:31;;;;;;;;;10.00;9.33;;;;;-147.17;100.00;1712.56;5084420;27;51136;-52
2023/06/02 00:10:57;;;;;;;;;9.00;9.00;;;;;-147.17;100.00;717.28;5082222;27;51178;-53
2023/06/02 00:13:23;;;;;;;;;11.00;9.67;;;;;-147.17;100.00;468.50;5085642;27;51131;-51
2023/06/02 00:15:49;;;;;;;;;9.00;9.00;;;;;-147.17;100.00;468.50;5083203;27;51240;-51
2023/06/02 00:18:15;;;;;;;;;13.50;11.50;;;;;-147.17;100.00;468.50;5086980;27;51146;-52
2023/06/02 00:20:41;;;;;;;;;14.33;14.33;;;;;-147.17;100.00;468.50;5090038;27;51185;-52
2023/06/02 00:23:08;;;;;;;;;11.33;11.00;;;;;-147.17;100.00;-526.47;5077190;27;51093;-53
2023/06/02 00:25:35;;;;;;;;;15.67;13.67;;;;;-147.17;100.00;-1769.84;5086421;27;51094;-51
2023/06/02 00:28:01;;;;;;;;;13.33;11.33;;;;;-147.17;100.00;-1769.84;5090601;27;52158;-52
2023/06/02 00:30:27;;;;;;;;;11.00;10.33;;;;;-147.17;100.00;-1521.19;5083882;27;52183;-51
2023/06/02 00:32:53;;;;;;;;;14.00;12.33;;;;;-147.17;100.00;-1521.19;5084944;27;51186;-52
2023/06/02 00:35:18;;;;;;;;;15.00;14.00;;;;;-147.17;100.00;-2267.06;5085492;27;51222;-53
2023/06/02 00:37:43;;;;;;;;;12.00;11.00;;;;;-147.17;100.00;-2267.06;5088379;27;51114;-53
2023/06/02 00:40:09;;;;;;;;;11.67;11.67;;;;;-147.17;100.00;-2018.47;5088761;27;52151;-51
2023/06/02 00:42:35;;;;;;;;;13.33;11.00;;;;;-147.17;100.00;-3509.84;5088323;27;51140;-53
2023/06/02 00:45:00;;;;;;;;;14.25;13.25;;;;;-147.17;100.00;-3509.84;5077328;27;51128;-50
2023/06/02 00:47:25;;;;;;;;;14.33;13.67;;;;;-147.17;100.00;-4006.88;5086245;27;51194;-50
2023/06/02 00:49:51;;;;;;;;;14.75;13.50;;;;;-147.17;100.00;-4006.88;5086775;27;61293;-50
2023/06/02 00:52:18;;;;;;;;;14.25;13.25;;;;;-147.17;100.00;-4503.81;5085882;27;51090;-52
2023/06/02 00:54:44;;;;;;;;;15.00;14.00;;;;;-147.17;100.00;-4503.81;5090512;27;51364;-49
2023/06/02 00:57:09;;;;;;;;;15.50;14.00;;;;;-147.17;100.00;-5000.69;5092541;27;51353;-53
2023/06/02 00:59:36;;;;;;;;;13.25;12.00;;;;;-147.17;100.00;-4503.81;5080716;27;52758;-52
2023/06/02 01:02:02;;;;;;;;;18.00;17.75;;;;;-147.17;100.00;-4752.25;5093160;27;50984;-52
2023/06/02 01:04:30;;;;;;;;;16.67;16.00;;;;;-147.17;100.00;-4255.34;5077827;27;51139;-53
2023/06/02 01:07:00;;;;;;;;;12.50;11.00;;;;;-147.17;100.00;-4006.88;5074985;27;51218;-52
2023/06/02 01:09:27;;;;;;;;;15.00;15.00;;;;;-147.17;100.00;-4255.34;5086374;27;51888;-51
2023/06/02 01:11:52;;;;;;;;;17.00;15.75;;;;;-147.17;100.00;-5745.88;5086024;27;51209;-52
2023/06/02 01:14:18;;;;;;;;;17.50;16.00;;;;;-147.17;100.00;-6490.94;5087281;27;50835;-53
2023/06/02 01:16:44;;;;;;;;;16.25;15.00;;;;;-147.17;100.00;-7235.84;5088838;27;51103;-51
2023/06/02 01:19:13;;;;;;;;;17.25;14.50;;;;;-147.17;100.00;-6242.59;5091094;27;52060;-51
2023/06/02 01:21:39;;;;;;;;;14.75;14.75;;;;;-147.17;100.00;-6987.56;5088449;27;51218;-50
2023/06/02 01:24:06;;;;;;;;;18.75;18.25;;;;;-147.17;100.00;-7235.84;5087317;27;51051;-52
2023/06/02 01:26:34;;;;;;;;;17.75;15.00;;;;;-147.17;100.00;-7235.84;5089435;27;51375;-53
2023/06/02 01:29:00;;;;;;;;;18.50;17.50;;;;;-147.17;100.00;-6739.25;5081655;27;53168;-52
2023/06/02 01:31:29;;;;;;;;;16.50;15.00;;;;;-147.17;100.00;-6987.56;5086807;27;51266;-50
2023/06/02 01:34:02;;;;;;;;;16.25;16.25;;;;;-147.17;100.00;-7732.34;5083774;27;51085;-52
2023/06/02 01:36:29;;;;;;;;;16.75;16.00;;;;;-147.17;100.00;-7235.84;5082127;27;51061;-52
2023/06/02 01:38:57;;;;;;;;;18.00;16.25;;;;;-147.17;100.00;-9221.53;5074020;27;53039;-53
2023/06/02 01:41:25;;;;;;;;;21.25;18.50;;;;;-147.17;100.00;-8725.22;5085156;27;50938;-52
2023/06/02 01:43:52;;;;;;;;;18.75;17.75;;;;;-147.17;100.00;-8477.03;5089246;27;51364;-52
2023/06/02 01:46:17;;;;;;;;;20.25;19.25;;;;;-147.17;100.00;-9717.81;5086345;27;51497;-53
2023/06/02 01:48:43;;;;;;;;;20.25;17.25;;;;;-147.17;100.00;-8228.81;5070721;28;51043;-51
2023/06/02 01:51:08;;;;;;;;;18.50;17.75;;;;;-147.17;100.00;-7732.34;5089469;27;51158;-50
2023/06/02 01:53:33;;;;;;;;;16.75;16.75;;;;;-147.17;100.00;-8228.81;5075157;27;50936;-52
2023/06/02 01:56:00;;;;;;;;;19.50;17.00;;;;;-147.17;100.00;-8477.03;5083521;27;51128;-54
2023/06/02 01:58:25;;;;;;;;;24.00;20.50;;;;;-147.17;100.00;-8973.38;5090415;27;51779;-53
2023/06/02 02:00:54;;;;;;;;;20.00;19.00;;;;;-147.17;100.00;-8477.03;5079906;27;51204;-51
2023/06/02 02:03:19;;;;;;;;;19.00;18.75;;;;;-147.17;100.00;-8477.03;5095186;27;51197;-53
2023/06/02 02:05:45;;;;;;;;;19.50;19.50;;;;;-147.17;100.00;-7980.59;5095020;27;51206;-53
2023/06/02 02:08:12;;;;;;;;;21.00;19.75;;;;;-147.17;100.00;-8477.03;5090998;27;53981;-53
2023/06/02 02:10:37;;;;;;;;;21.50;20.00;;;;;-147.17;100.00;-8477.03;5085648;27;51104;-53
2023/06/02 02:13:02;;;;;;;;;18.00;17.75;;;;;-147.17;100.00;-8477.03;5093853;27;51180;-52
2023/06/02 02:15:28;;;;;;;;;22.25;20.50;;;;;-147.17;100.00;-8973.38;5089171;27;51192;-54
2023/06/02 02:17:56;;;;;;;;;21.00;21.00;;;;;-147.17;100.00;-8725.22;5092387;27;51745;-54
2023/06/02 02:20:22;;;;;;;;;20.75;20.50;;;;;-147.17;100.00;-8725.22;5087055;27;51012;-54
2023/06/02 02:22:48;;;;;;;;;19.00;18.25;;;;;-147.17;100.00;-9221.53;5092397;27;51102;-54
2023/06/02 02:25:14;;;;;;;;;20.50;20.00;;;;;-147.17;100.00;-9469.69;5093772;27;51086;-54
2023/06/02 02:27:39;;;;;;;;;21.00;18.75;;;;;-147.17;100.00;-9717.81;5087160;27;52048;-51
2023/06/02 02:30:06;;;;;;;;;20.75;20.75;;;;;-147.17;100.00;-9717.81;5089923;27;51079;-53
2023/06/02 02:32:34;;;;;;;;;19.50;19.50;;;;;-147.17;100.00;-9965.91;5087240;27;51107;-54
2023/06/02 02:34:59;;;;;;;;;21.00;20.50;;;;;-147.17;100.00;-9965.91;5094057;27;51334;-54
2023/06/02 02:37:24;;;;;;;;;19.50;19.25;;;;;-147.17;100.00;-9717.81;5092336;27;51692;-54
2023/06/02 02:39:50;;;;;;;;;21.00;19.00;;;;;-147.17;100.00;-9221.53;5091942;27;51207;-52
2023/06/02 02:42:15;;;;;;;;;19.50;18.25;;;;;-147.17;100.00;-9469.69;5091528;27;51009;-53
2023/06/02 02:44:41;;;;;;;;;21.50;21.00;;;;;-147.17;100.00;-9469.69;5085483;27;51145;-54
2023/06/02 02:47:06;;;;;;;;;19.75;17.50;;;;;-147.17;100.00;-9965.91;5090824;27;51310;-51
2023/06/02 02:49:31;;;;;;;;;17.50;16.00;;;;;-147.17;100.00;-10462.09;5093347;27;51088;-53
2023/06/02 02:51:57;;;;;;;;;20.00;19.50;;;;;-147.17;100.00;-9965.91;5092431;27;51183;-52
2023/06/02 02:54:24;;;;;;;;;24.00;22.25;;;;;-147.17;100.00;-10214.00;5090806;27;50936;-52
2023/06/02 02:56:50;;;;;;;;;20.00;19.25;;;;;-147.17;100.00;-9965.91;5087052;27;51930;-53
2023/06/02 02:59:16;;;;;;;;;20.75;19.75;;;;;-147.17;100.00;-9965.91;5090363;27;51113;-53
2023/06/02 03:01:43;;;;;;;;;20.50;20.50;;;;;-147.17;100.00;-10214.00;5090383;27;51308;-53
2023/06/02 03:04:10;;;;;;;;;20.75;20.25;;;;;-147.17;100.00;-11206.22;5088099;27;51469;-55
2023/06/02 03:06:40;;;;;;;;;21.25;19.75;;;;;-147.17;100.00;-10462.09;5093698;27;51795;-54
2023/06/02 03:09:07;;;;;;;;;22.50;21.00;;;;;-147.17;100.00;-11454.25;5092749;27;51154;-52
2023/06/02 03:11:33;;;;;;;;;19.50;18.25;;;;;-147.17;100.00;-10958.19;5093109;27;51088;-52
2023/06/02 03:13:58;;;;;;;;;23.00;20.75;;;;;-147.17;100.00;-10958.19;5091204;27;51128;-52
2023/06/02 03:16:23;;;;;;;;;22.00;20.25;;;;;-147.17;100.00;-11454.25;5085677;27;55050;-52
2023/06/02 03:18:49;;;;;;;;;20.75;20.75;;;;;-147.17;100.00;-11206.22;5085738;27;51054;-51
2023/06/02 03:21:14;;;;;;;;;21.50;21.25;;;;;-147.17;100.00;-11206.22;5087420;27;51249;-51
2023/06/02 03:23:40;;;;;;;;;19.75;19.25;;;;;-147.17;100.00;-10710.16;5093285;27;50934;-53
2023/06/02 03:26:06;;;;;;;;;24.25;21.75;;;;;-147.17;100.00;-10710.16;5089518;27;51245;-55
2023/06/02 03:28:31;;;;;;;;;23.00;20.50;;;;;-147.17;100.00;-10958.19;5091994;27;50994;-53
2023/06/02 03:30:56;;;;;;;;;21.75;21.50;;;;;-147.17;100.00;-11206.22;5087170;27;51398;-53
2023/06/02 03:33:22;;;;;;;;;25.25;22.75;;;;;-147.17;100.00;-12198.19;5092938;27;50960;-50
2023/06/02 03:35:48;;;;;;;;;19.25;18.00;;;;;-147.17;100.00;-11950.22;5088338;27;51896;-53
2023/06/02 03:38:13;;;;;;;;;26.00;24.50;;;;;-147.17;100.00;-12198.19;5090571;27;51174;-49
2023/06/02 03:40:38;;;;;;;;;27.00;22.00;;;;;-147.17;100.00;-11950.22;5091708;27;51416;-49
2023/06/02 03:43:04;;;;;;;;;23.00;22.00;;;;;-147.17;100.00;-12446.13;5092770;27;51258;-52
2023/06/02 03:45:30;;;;;;;;;23.25;22.75;;;;;-147.17;100.00;-12941.97;5093014;27;51768;-52
2023/06/02 03:47:56;;;;;;;;;21.50;21.00;;;;;-147.17;100.00;-12694.06;5087569;27;51211;-53
2023/06/02 03:50:21;;;;;;;;;22.00;21.00;;;;;-147.17;100.00;-12694.06;5079556;27;51057;-51
2023/06/02 03:52:46;;;;;;;;;22.00;21.50;;;;;-147.17;100.00;-12446.13;5086573;27;51105;-53
2023/06/02 03:55:12;;;;;;;;;24.75;22.25;;;;;-147.17;100.00;-12941.97;5080056;27;51048;-54
2023/06/02 03:57:38;;;;;;;;;25.00;24.00;;;;;-147.17;100.00;-13189.88;5087103;27;51145;-53
2023/06/02 04:00:06;;;;;;;;;23.75;21.75;;;;;-147.17;100.00;-13189.88;5076723;27;51197;-51
2023/06/02 04:02:31;;;;;;;;;26.75;24.50;;;;;-147.17;100.00;-13437.75;5091272;27;51220;-51
2023/06/02 04:04:57;;;;;;;;;23.00;22.75;;;;;-147.17;100.00;-12941.97;5093732;27;52810;-52
2023/06/02 04:07:22;;;;;;;;;26.25;23.75;;;;;-147.17;100.00;-12446.13;5085983;27;51149;-53
2023/06/02 04:09:48;;;;;;;;;25.75;25.00;;;;;-147.17;100.00;-13189.88;5087687;27;51303;-52
2023/06/02 04:12:13;;;;;;;;;24.75;24.00;;;;;-147.17;100.00;-12941.97;5092135;27;51092;-54
2023/06/02 04:14:38;;;;;;;;;25.25;25.25;;;;;-147.17;100.00;-13189.88;5073880;27;51841;-54
2023/06/02 04:17:04;;;;;;;;;22.75;22.50;;;;;-147.17;100.00;-13189.88;5084854;27;53121;-52
2023/06/02 04:19:30;;;;;;;;;29.50;26.00;;;;;-147.17;100.00;-13437.75;5078911;27;51027;-53
2023/06/02 04:21:55;;;;;;;;;27.00;27.00;;;;;-147.17;100.00;-13189.88;5091745;27;51028;-53
2023/06/02 04:24:20;;;;;;;;;27.25;26.75;;;;;-147.17;100.00;-13189.88;5091549;27;51246;-54
2023/06/02 04:26:46;;;;;;;;;28.75;27.00;;;;;-147.17;100.00;-13189.88;5085417;27;51768;-53
2023/06/02 04:29:12;;;;;;;;;25.25;24.25;;;;;-147.17;100.00;-13437.75;5089021;27;51166;-54
2023/06/02 04:31:39;;;;;;;;;27.25;25.00;;;;;-147.17;100.00;-13437.75;5084015;27;51157;-53
2023/06/02 04:34:04;;;;;;;;;30.25;30.25;;;;;-147.17;100.00;-13685.63;5072633;27;51892;-54
2023/06/02 04:36:30;;;;;;;;;31.50;29.25;;;;;-147.17;100.00;-13933.50;5085627;27;51177;-52
2023/06/02 04:38:55;;;;;;;;;27.75;26.75;;;;;-147.17;100.00;-13933.50;5092756;27;51192;-51
2023/06/02 04:41:22;;;;;;;;;26.00;25.00;;;;;-147.17;100.00;-13933.50;5087885;27;51406;-52
2023/06/02 04:43:48;;;;;;;;;25.75;23.75;;;;;-147.17;100.00;-13437.75;5078990;27;52793;-52
2023/06/02 04:46:13;;;;;;;;;23.00;23.00;;;;;-147.17;100.00;-13189.88;5078789;27;51253;-53
2023/06/02 04:48:42;;;;;;;;;27.00;26.25;;;;;-147.17;100.00;-13437.75;5092089;27;51531;-53
2023/06/02 04:51:07;;;;;;;;;27.50;25.50;;;;;-147.17;100.00;-12941.97;5088607;27;51187;-52
2023/06/02 04:53:33;;;;;;;;;25.00;24.25;;;;;-147.17;100.00;-12941.97;5090371;27;51891;-52
2023/06/02 04:55:58;;;;;;;;;24.00;23.75;;;;;-147.17;100.00;-12941.97;5092167;27;50987;-49
2023/06/02 04:58:24;;;;;;;;;33.75;31.00;;;;;-147.17;100.00;-13189.88;5086195;27;51076;-51
2023/06/02 05:00:50;;;;;;;;;27.75;26.75;;;;;-147.17;100.00;-12941.97;5076830;27;51186;-53
2023/06/02 05:03:15;;;;;;;;;30.00;27.25;;;;;-147.17;100.00;-12694.06;5086325;27;51773;-54
2023/06/02 05:05:41;;;;;;;;;27.25;26.75;;;;;-147.17;100.00;-12941.97;5082612;27;51180;-52
2023/06/02 05:08:06;;;;;;;;;26.75;26.50;;;;;-147.17;100.00;-12941.97;5086533;27;51306;-52
2023/06/02 05:10:31;;;;;;;;;29.50;28.50;;;;;-147.17;100.00;-12694.06;5086662;27;51359;-54
2023/06/02 05:12:57;;;;;;;;;27.75;25.75;;;;;-147.17;100.00;-12446.13;5089510;27;51000;-54
2023/06/02 05:15:22;;;;;;;;;29.50;27.25;;;;;-147.17;100.00;-12198.19;5082779;27;51015;-52
2023/06/02 05:17:47;;;;;;;;;27.50;26.00;;;;;-147.17;100.00;-12446.13;5071952;27;50956;-52
2023/06/02 05:20:13;;;;;;;;;27.00;25.50;;;;;-147.17;100.00;-11950.22;5080548;27;51166;-52
2023/06/02 05:22:38;;;;;;;;;28.50;27.25;;;;;-147.17;100.00;-11454.25;5090517;27;51100;-51
2023/06/02 05:25:04;;;;;;;;;27.50;26.25;;;;;-147.17;100.00;-10958.19;5075324;27;51221;-54
2023/06/02 05:27:29;;;;;;;;;26.25;26.00;;;;;-147.17;100.00;-11454.25;5086023;27;51127;-54
2023/06/02 05:29:55;;;;;;;;;25.50;24.75;;;;;-147.17;100.00;-11702.25;5085290;27;51240;-54
2023/06/02 05:32:24;;;;;;;;;30.00;28.75;;;;;-147.17;100.00;-11950.22;5088920;27;51802;-53
2023/06/02 05:34:49;;;;;;;;;29.00;26.75;;;;;-147.17;100.00;-11702.25;5086474;27;51161;-52
2023/06/02 05:37:15;;;;;;;;;26.50;25.75;;;;;-147.17;100.00;-11206.22;5083948;27;50968;-51
2023/06/02 05:39:41;;;;;;;;;26.75;26.25;;;;;-147.17;100.00;-11206.22;5077635;27;51400;-53
2023/06/02 05:42:07;;;;;;;;;25.00;24.25;;;;;-147.17;100.00;-10710.16;5086666;27;52936;-53
2023/06/02 05:44:32;;;;;;;;;30.50;27.50;;;;;-147.17;100.00;-10462.09;5074735;27;51040;-53
2023/06/02 05:46:58;;;;;;;;;29.50;27.25;;;;;-147.17;100.00;-9717.81;5076545;27;51773;-56
2023/06/02 05:49:23;;;;;;;;;29.50;27.50;;;;;-147.17;100.00;-8973.38;5087448;27;51849;-54
2023/06/02 05:51:49;;;;;;;;;32.75;29.75;;;;;-147.17;100.00;-8725.22;5083700;27;52075;-53
2023/06/02 05:54:14;;;;;;;;;30.75;30.00;;;;;-147.17;100.00;-8228.81;5086434;27;51171;-51
2023/06/02 05:56:40;;;;;;;;;31.75;30.00;;;;;-147.17;100.00;-7980.59;5093630;27;50934;-52
2023/06/02 05:59:05;;;;;;;;;30.50;26.25;;;;;-147.17;100.00;-8228.81;5088784;27;51125;-53
2023/06/02 06:01:31;;;;;;;;;33.00;30.25;;;;;-147.17;100.00;-7980.59;5091643;27;52932;-53
2023/06/02 06:03:56;;;;;;;;;37.00;33.00;;;;;-147.17;100.00;-7732.34;5092024;27;51174;-52
2023/06/02 06:06:22;;;;;;;;;36.50;33.50;;;;;-147.17;100.00;-6739.25;5086465;27;51189;-53
2023/06/02 06:08:47;;;;;;;;;33.00;31.00;;;;;-147.17;100.00;-6242.59;5085905;27;51131;-51
2023/06/02 06:11:13;;;;;;;;;27.75;26.50;;;;;-147.17;100.00;-5994.25;5086828;27;52723;-53
2023/06/02 06:13:39;;;;;;;;;33.00;30.25;;;;;-147.17;100.00;-5249.09;5086930;27;51193;-50
2023/06/02 06:16:05;;;;;;;;;32.75;31.00;;;;;-147.17;100.00;-4255.34;5086638;27;50999;-51
2023/06/02 06:18:30;;;;;;;;;32.75;30.75;;;;;-147.17;100.00;-3261.34;5092948;27;51711;-52
2023/06/02 06:20:55;;;;;;;;;30.75;29.25;;;;;-147.17;100.00;-3012.78;5091223;27;53125;-52
2023/06/02 06:23:21;;;;;;;;;34.25;31.25;;;;;-147.17;100.00;-2267.06;5083655;27;51080;-49
2023/06/02 06:25:47;;;;;;;;;35.75;32.75;;;;;-147.17;100.00;-2018.47;5104204;27;51120;-50
2023/06/02 06:28:12;;;;;;;;;35.50;32.25;;;;;-147.17;100.00;-2018.47;5077089;27;51088;-54
2023/06/02 06:30:39;;;;;;;;;36.00;33.00;;;;;-147.17;100.00;-1272.53;5060432;27;51642;-54
2023/06/02 06:33:05;;;;;;;;;34.50;30.25;;;;;-147.17;100.00;-1272.53;5082287;27;51130;-54
2023/06/02 06:35:31;;;;;;;;;35.00;30.75;;;;;-147.17;100.00;-29.03;5074198;27;51059;-52
2023/06/02 06:37:56;;;;;;;;;31.00;29.75;;;;;-147.17;100.00;219.72;5074815;28;51316;-53
2023/06/02 06:40:22;;;;;;;;;35.00;31.00;;;;;-147.17;100.00;219.72;5073703;27;51180;-52
2023/06/02 06:42:47;;;;;;;;;27.50;26.75;;;;;-147.17;100.00;468.50;5072948;28;51043;-54
2023/06/02 06:45:12;;;;;;;;;29.75;28.00;;;;;-147.17;100.00;1214.91;5091324;27;51188;-51
2023/06/02 06:47:38;;;;;;;;;31.00;29.25;;;;;-147.17;100.00;2459.22;5093810;27;51418;-53
2023/06/02 06:50:03;;;;;;;;;36.50;33.50;;;;;-147.17;100.00;3206.00;5092906;27;53733;-50
2023/06/02 06:52:29;;;;;;;;;40.75;33.25;;;;;-147.17;100.00;3952.94;5090768;27;50950;-53
2023/06/02 06:54:54;;;;;;;;;33.75;29.00;;;;;-147.17;100.00;4949.06;5086488;27;51095;-49
2023/06/02 06:57:20;;;;;;;;;30.25;29.25;;;;;-147.17;100.00;5696.34;5086121;27;51026;-52
2023/06/02 06:59:47;;;;;;;;;40.00;35.00;;;;;-147.17;100.00;5447.22;5075982;27;53463;-50
2023/06/02 07:02:12;;;;;;;;;33.50;30.50;;;;;-147.17;100.00;5447.22;5093973;27;51093;-50
2023/06/02 07:04:38;;;;;;;;;32.50;29.50;;;;;-147.17;100.00;5447.22;5094946;27;51412;-51
2023/06/02 07:07:04;;;;;;;;;33.50;31.50;;;;;-147.17;100.00;5447.22;5095259;27;50857;-52
2023/06/02 07:09:29;;;;;;;;;32.50;31.00;;;;;-147.17;100.00;8936.16;5094212;27;51136;-50
2023/06/02 07:11:56;;;;;;;;;33.25;31.25;;;;;-147.17;100.00;9434.84;5091114;27;51132;-49
2023/06/02 07:14:22;;;;;;;;;31.75;29.75;;;;;-147.17;100.00;9684.19;5083762;27;51163;-52
2023/06/02 07:16:49;;;;;;;;;26.25;25.50;;;;;-147.17;100.00;10681.81;5091774;27;51276;-53
2023/06/02 07:19:15;;;;;;;;;30.50;29.50;;;;;-147.17;100.00;13176.94;5093088;27;51900;-52
2023/06/02 07:21:40;;;;;;;;;26.25;25.50;;;;;-147.17;100.00;14924.50;5094112;27;51042;-53
2023/06/02 07:24:06;;;;;;;;;25.00;23.00;;;;;-147.17;100.00;24174.66;5094194;27;51032;-53
2023/06/02 07:26:31;;;;;;;;;30.25;29.25;;;;;-147.17;100.00;26177.59;5091887;27;51020;-51
2023/06/02 07:28:56;;;;;;;;;26.75;26.25;;;;;-147.17;100.00;30874.00;5075924;27;51918;-52
2023/06/02 07:31:22;;;;;;;;;29.25;26.25;;;;;-147.17;100.00;32658.91;5072228;27;51505;-52
2023/06/02 07:33:48;;;;;;;;;26.50;24.50;;;;;-147.17;100.00;34826.97;5072393;27;51095;-50
2023/06/02 07:36:13;;;;;;;;;31.00;29.25;;;;;-147.17;100.00;35895.75;5073064;28;51316;-52
2023/06/02 07:38:38;;;;;;;;;34.25;30.00;;;;;-147.17;100.00;38306.97;5073789;27;51912;-53
2023/06/02 07:41:04;;;;;;;;;31.25;30.00;;;;;-147.17;100.00;38799.63;5085889;27;51078;-51
2023/06/02 07:43:29;;;;;;;;;29.75;29.00;;;;;-147.17;100.00;38106.81;5072804;28;51356;-52
2023/06/02 07:45:54;;;;;;;;;29.25;26.50;;;;;-147.17;100.00;38966.47;5091702;27;51345;-53
2023/06/02 07:48:20;;;;;;;;;23.75;23.75;;;;;-147.17;100.00;37396.47;5092437;27;52031;-51
2023/06/02 07:50:45;;;;;;;;;27.50;26.50;;;;;-147.17;100.00;37212.03;5082809;27;51202;-56
2023/06/02 07:53:11;;;;;;;;;23.50;22.25;;;;;-147.17;100.00;39916.59;5074138;28;50929;-51
2023/06/02 07:55:36;;;;;;;;;24.00;21.75;;;;;-147.17;100.00;42010.09;5073945;28;51002;-52
2023/06/02 07:58:02;;;;;;;;;21.00;20.00;;;;;-147.17;100.00;42475.69;5074078;27;51850;-49
2023/06/02 08:00:27;;;;;;;;;20.25;18.25;;;;;-147.17;100.00;42900.06;5089675;27;51005;-52
2023/06/02 08:02:52;;;;;;;;;22.75;21.50;;;;;-147.17;100.00;43876.72;5093906;27;51047;-52
2023/06/02 08:05:18;;;;;;;;;15.00;15.00;;;;;-147.17;100.00;45374.59;5091568;27;51269;-50
2023/06/02 08:07:44;;;;;;;;;24.50;23.25;;;;;-147.17;100.00;44875.22;5080156;27;51987;-53
2023/06/02 08:10:11;;;;;;;;;16.00;16.00;;;;;-147.17;100.00;45583.00;5085618;27;51447;-54
2023/06/02 08:12:36;;;;;;;;;27.25;27.00;;;;;-147.17;100.00;46188.63;5086257;27;51066;-54
2023/06/02 08:15:02;;;;;;;;;17.00;17.00;;;;;-147.17;100.00;46723.53;5088181;27;51355;-53
2023/06/02 08:17:30;;;;;;;;;15.00;14.00;;;;;-147.17;100.00;46416.75;5072963;27;52028;-52
2023/06/02 08:19:57;;;;;;;;;15.00;14.33;;;;;-147.17;100.00;46406.91;5078482;27;51872;-54
2023/06/02 08:22:22;;;;;;;;;14.00;14.00;;;;;-147.17;100.00;46477.69;5092226;27;51137;-54
2023/06/02 08:24:48;;;;;;;;;18.33;17.00;;;;;-147.17;100.00;46658.63;5092447;27;51224;-53
2023/06/02 08:27:14;;;;;;;;;15.00;15.00;;;;;-147.17;100.00;46633.06;5072272;27;52631;-53
2023/06/02 08:29:40;;;;;;;;;19.00;17.67;;;;;-147.17;100.00;46605.53;5072609;27;51047;-52
2023/06/02 08:32:06;;;;;;;;;17.00;16.00;;;;;-147.17;100.00;46662.56;5089915;27;51259;-53
2023/06/02 08:34:31;;;;;;;;;14.00;14.00;;;;;-147.17;100.00;46522.94;5088646;27;50948;-51
2023/06/02 08:37:00;;;;;;;;;15.33;15.33;;;;;-147.17;100.00;46670.44;5089457;27;51799;-53
2023/06/02 08:39:29;;;;;;;;;15.00;15.00;;;;;-147.17;100.00;46613.41;5091526;27;51199;-51
2023/06/02 08:42:01;;;;;;;;;16.00;15.00;;;;;-147.17;100.00;47014.63;5101251;27;50940;-52
2023/06/02 08:44:28;;;;;;;;;14.33;14.33;;;;;-147.17;100.00;47012.66;5085331;27;51113;-53
2023/06/02 08:46:55;;;;;;;;;19.00;17.00;;;;;-147.17;100.00;46853.34;5079083;27;51290;-54
2023/06/02 08:49:22;;;;;;;;;16.67;16.67;;;;;-147.17;100.00;46859.25;5089804;27;50967;-53
2023/06/02 08:51:57;;;;;;;;;19.33;19.33;;;;;-147.17;100.00;46737.31;5097189;27;51085;-54
2023/06/02 08:54:23;;;;;;;;;17.33;17.33;;;;;-147.17;100.00;46550.47;5080246;27;51188;-53
2023/06/02 08:56:49;;;;;;;;;19.25;17.75;;;;;-147.17;100.00;46519.00;5074386;27;51807;-54
2023/06/02 08:59:20;;;;;;;;;18.67;17.33;;;;;-147.17;100.00;46452.13;5105334;27;51211;-50
2023/06/02 09:01:47;;;;;;;;;18.50;18.50;;;;;-147.17;100.00;46308.56;5088880;27;51019;-51
2023/06/02 09:04:12;;;;;;;;;17.75;16.75;;;;;-147.17;100.00;46481.63;5092707;27;51526;-52
2023/06/02 09:06:38;;;;;;;;;17.33;17.33;;;;;-147.17;100.00;46456.06;5091856;27;51901;-53
2023/06/02 09:09:04;;;;;;;;;18.75;18.75;;;;;-147.17;100.00;46668.47;5094210;27;51184;-52
2023/06/02 09:11:31;;;;;;;;;21.25;20.25;;;;;-147.17;100.00;46967.41;5081033;27;51888;-52
2023/06/02 09:13:57;;;;;;;;;19.75;19.75;;;;;-147.17;100.00;46959.56;5093174;27;51064;-50
2023/06/02 09:16:33;;;;;;;;;24.00;23.00;;;;;-147.17;100.00;46794.34;5109819;27;53204;-54
2023/06/02 09:19:00;;;;;;;;;21.75;20.00;;;;;-147.17;100.00;46719.59;5097668;27;51971;-51
2023/06/02 09:21:32;;;;;;;;;21.75;21.25;;;;;-147.17;100.00;46780.56;5094935;27;51148;-51
2023/06/02 09:23:58;;;;;;;;;22.50;21.25;;;;;-147.17;100.00;46784.50;5094301;27;51233;-54
2023/06/02 09:26:30;;;;;;;;;21.50;21.00;;;;;-147.17;100.00;46760.91;5102178;27;52274;-53
2023/06/02 09:29:08;;;;;;;;;19.00;18.67;;;;;-147.17;100.00;46892.69;5096707;27;51249;-50
2023/06/02 09:31:52;;;;;;;;;26.00;24.50;;;;;-147.17;100.00;46841.53;5092612;27;51078;-52
2023/06/02 09:34:21;;;;;;;;;19.25;19.00;;;;;-147.17;100.00;46939.88;5100474;27;50995;-54
2023/06/02 09:36:49;;;;;;;;;4.50;4.25;;;;;-147.17;100.00;46924.16;5101254;27;51874;-51
2023/06/02 09:39:31;;;;;;;;;21.67;21.00;;;;;-147.17;100.00;46560.31;5091973;27;52808;-55
2023/06/02 09:41:56;;;;;;;;;17.00;17.00;;;;;-147.17;100.00;46326.28;5091703;27;51412;-51
2023/06/02 09:44:23;;;;;;;;;17.00;17.00;;;;;-147.17;100.00;46522.94;5085583;27;52076;-53
2023/06/02 09:46:48;;;;;;;;;16.00;16.00;;;;;-147.17;100.00;46778.59;5104843;27;50958;-54
2023/06/02 09:49:14;;;;;;;;;16.00;16.00;;;;;-147.17;100.00;46705.84;5096661;27;51039;-60
2023/06/02 09:51:39;;;;;;;;;18.75;18.00;;;;;-147.17;100.00;46519.00;5093636;27;51206;-60
2023/06/02 09:54:09;;;;;;;;;18.00;17.25;;;;;-147.17;100.00;46385.28;5095171;27;51237;-59
2023/06/02 09:56:38;;;;;;;;;18.00;18.00;;;;;-147.17;100.00;46176.81;5098353;27;51940;-59
2023/06/02 09:59:07;;;;;;;;;16.00;14.00;;;;;-147.17;100.00;46045.06;5104000;27;51061;-59
2023/06/02 10:01:34;;;;;;;;;20.50;19.50;;;;;-147.17;100.00;45830.75;5098191;27;51203;-60
2023/06/02 10:04:00;;;;;;;;;19.25;18.25;;;;;-147.17;100.00;45822.88;5086921;27;51034;-59
2023/06/02 10:06:52;;;;;;;;;16.75;16.75;;;;;-147.17;100.00;45754.06;5085102;27;51795;-58
2023/06/02 10:09:29;;;;;;;;;17.00;17.00;;;;;-147.17;100.00;45771.75;5098162;27;51101;-60
2023/06/02 10:12:07;;;;;;;;;19.00;17.25;;;;;-147.17;100.00;45875.97;5095332;27;51162;-59
2023/06/02 10:15:00;;;;;;;;;21.25;19.75;;;;;-147.17;100.00;46515.06;5089499;27;51379;-60
2023/06/02 10:17:47;;;;;;;;;14.00;13.50;;;;;-147.17;100.00;47022.50;5096079;27;51823;-65
2023/06/02 10:20:16;;;;;;;;;16.67;16.33;;;;;-147.17;100.00;47274.25;5097136;27;51006;-66
2023/06/02 10:23:17;;;;;;;;;18.75;18.50;;;;;-147.17;100.00;47557.53;5080000;27;51213;-66
2023/06/02 10:26:04;;;;;;;;;21.00;19.75;;;;;-147.17;100.00;47913.59;5093496;27;51327;-65
2023/06/02 10:28:31;;;;;;;;;18.25;18.25;;;;;-147.17;100.00;48228.38;5089612;27;51110;-65
2023/06/02 10:31:11;;;;;;;;;23.00;22.25;;;;;-147.17;100.00;48519.59;5088202;27;51183;-65
2023/06/02 10:33:45;;;;;;;;;23.25;22.75;;;;;-147.17;100.00;48747.84;5101158;27;50893;-65
2023/06/02 10:36:13;;;;;;;;;20.00;19.67;;;;;-147.17;100.00;48881.66;5092422;27;51247;-65
2023/06/02 10:38:38;;;;;;;;;21.25;20.25;;;;;-147.17;100.00;48993.81;5103360;27;52230;-66
2023/06/02 10:41:05;;;;;;;;;18.00;17.50;;;;;-147.17;100.00;49084.34;5091777;27;51007;-63
2023/06/02 10:43:32;;;;;;;;;20.00;19.00;;;;;-147.17;100.00;49155.19;5075818;27;51202;-64
2023/06/02 10:46:18;;;;;;;;;19.25;19.25;;;;;-147.17;100.00;49263.44;5090786;27;51228;-63
2023/06/02 10:48:43;;;;;;;;;24.50;24.00;;;;;-147.17;100.00;49340.19;5085827;27;52275;-62
2023/06/02 10:51:10;;;;;;;;;21.25;20.75;;;;;-147.17;100.00;49318.53;5100137;27;51168;-66
2023/06/02 10:53:58;;;;;;;;;18.00;18.00;;;;;-147.17;100.00;49344.13;5078674;27;51176;-66